createdAt,value
2022-12-29T00:27:00.923Z,85.96
2022-12-29T00:57:03.920Z,85.93
2022-12-29T01:27:07.772Z,85.34
2022-12-29T01:57:10.599Z,83.55
2022-12-29T02:27:14.221Z,84.82
2022-12-29T02:57:18.284Z,86.33
2022-12-29T03:27:21.988Z,86.85
2022-12-29T03:57:25.714Z,87.34
2022-12-29T04:27:30.140Z,87.25
2022-12-29T04:57:33.604Z,86.00
2022-12-29T05:27:37.052Z,85.21
2022-12-29T05:57:40.363Z,85.67
2022-12-29T06:27:43.456Z,85.75
2022-12-29T06:57:46.878Z,86.04
2022-12-29T07:27:50.671Z,85.42
2022-12-29T07:57:53.611Z,83.83
2022-12-29T08:27:57.933Z,83.20
2022-12-29T08:58:00.723Z,82.22
2022-12-29T09:28:04.742Z,81.59
2022-12-29T09:58:07.581Z,80.20
2022-12-29T10:28:11.482Z,78.83
2022-12-29T10:58:14.288Z,77.59
2022-12-29T11:28:18.247Z,75.44
2022-12-29T11:58:21.165Z,75.70
2022-12-29T12:28:26.649Z,74.37
2022-12-29T12:58:31.402Z,74.65
2022-12-29T13:28:35.644Z,72.30
2022-12-29T13:58:38.489Z,73.02
2022-12-29T14:28:42.458Z,71.68
2022-12-29T14:58:45.419Z,74.21
2022-12-29T15:28:48.783Z,74.00
2022-12-29T15:58:51.609Z,73.69
2022-12-29T16:28:55.236Z,73.95
2022-12-29T16:58:58.029Z,74.33
2022-12-29T17:29:02.023Z,74.98
2022-12-29T17:59:04.917Z,75.19
2022-12-29T18:29:08.533Z,76.32
2022-12-29T18:59:11.480Z,76.53
2022-12-29T19:29:16.939Z,77.47
2022-12-29T19:59:20.443Z,77.64
2022-12-29T20:29:24.326Z,78.39
2022-12-29T20:59:28.341Z,79.39
2022-12-29T21:29:32.774Z,80.15
2022-12-29T21:59:35.688Z,79.95
2022-12-29T22:29:39.478Z,79.97
2022-12-29T22:59:42.335Z,80.22
2022-12-29T23:29:46.807Z,80.19
2022-12-29T23:59:49.706Z,80.44
